Current Weather

Michigan City Muni-Phillips Fld

Michigan City, Indiana (KMGC)

Report from: Friday, August 19, 2022 12:35 AM EDT
Current time: Friday, August 19, 2022 1:09 AM EDT

Nearby weather
Weather history
Weather forecast

Temperature16.0°C (60.8°F)
Dew point15.0°C (59.0°F)
Winds Calm
Visibility10 mi. (16.1 km)
Clouds Sky clear
Altimeter29.98 in.Hg (1015 mB)
Relative humidity94 %
Density altitude286 ft. (87 m)
Remarks Fully automated report
Automated weather observing station with precipitation discriminator
Flight conditions Visual Meteorological Conditions
Raw dataKMGC 190435Z AUTO 00000KT 10SM CLR 16/15 A2998 RMK AO2
An unhandled exception has occurred. See browser dev tools for details. Reload 🗙